Time;durP1;ratioP1;P1;durP2;ratioP2;P2;SDS_P1;SDS_P2;PMS_P1;PMS_P2;Temp;Humidity;BMP_temperature;BMP_pressure;BME280_temperature;BME280_humidity;BME280_pressure;Samples;Min_cycle;Max_cycle;Signal;HPM_P1;HPM_P2
2022/02/13 19:44:42;;;;;;;;;;;;;;;38.70;12.17;97148.47;175867;27;1252;-50
2022/02/13 19:44:47;;;;;;;;;;;;;;;38.63;11.76;97144.13;173739;28;1827;-51
2022/02/13 19:44:52;;;;;;;;;;;;;;;38.55;12.18;97150.59;173962;28;816;-51
2022/02/13 19:44:57;;;;;;;;;;;;;;;38.48;12.00;97141.75;174339;28;1048;-50
2022/02/13 19:45:03;;;;;;;;;;;;;;;38.41;12.25;97146.31;174289;28;1063;-51
2022/02/13 19:45:08;;;;;;;;;;;;;;;38.39;12.04;97143.00;174443;28;1140;-51
2022/02/13 19:45:13;;;;;;;;;;;;;;;38.35;12.18;97148.00;173942;28;836;-50
2022/02/13 19:45:19;;;;;;;;;;;;;;;38.33;12.15;97149.25;174226;28;1033;-51
2022/02/13 19:45:24;;;;;;;;;;;;;;;38.29;12.10;97143.47;174624;28;952;-50
2022/02/13 19:45:31;;;;;;;;;;;;;;;38.25;12.31;97143.06;174525;28;1223;-51
2022/02/13 19:45:36;;;;;;;;;;;;;;;38.22;12.32;97145.31;173847;28;886;-51
2022/02/13 19:45:41;;;;;;;;;;;;;;;38.21;12.30;97151.75;174265;28;1029;-51
2022/02/13 19:45:46;;;;;;;;;;;;;;;38.18;12.44;97141.41;174358;28;837;-51
2022/02/13 19:45:52;;;;;;;;;;;;;;;38.17;12.20;97140.59;174447;28;1003;-52
2022/02/13 19:45:57;;;;;;;;;;;;;;;38.17;12.25;97151.34;174470;28;1243;-51
2022/02/13 19:46:02;;;;;;;;;;;;;;;38.17;12.34;97142.44;174282;28;1142;-52
2022/02/13 19:46:07;;;;;;;;;;;;;;;38.17;12.31;97145.16;174362;28;1284;-51
2022/02/13 19:46:13;;;;;;;;;;;;;;;38.18;12.16;97141.41;173922;28;936;-52
2022/02/13 19:46:20;;;;;;;;;;;;;;;38.19;12.11;97151.13;174444;28;1097;-51
2022/02/13 19:46:27;;;;;;;;;;;;;;;38.21;12.26;97138.28;172165;28;4333;-50
2022/02/13 19:46:32;;;;;;;;;;;;;;;38.20;12.36;97147.41;171785;28;1319;-51
2022/02/13 19:46:38;;;;;;;;;;;;;;;38.22;12.09;97146.13;171763;28;856;-51
2022/02/13 19:46:43;;;;;;;;;;;;;;;38.23;12.16;97144.28;171741;28;1036;-50
2022/02/13 19:46:48;;;;;;;;;;;;;;;38.25;12.35;97150.31;171759;28;1177;-51
2022/02/13 19:46:54;;;;;;;;;;;;;;;38.22;12.25;97142.63;171406;28;968;-51
2022/02/13 19:47:02;;;;;;;;;;;;;;;38.23;12.20;97138.88;171628;28;1073;-49
2022/02/13 19:47:07;;;;;;;;;;;;;;;38.25;11.96;97150.31;171591;28;967;-52
2022/02/13 19:47:12;;;;;;;;;;;;;;;38.25;12.22;97144.94;171685;28;822;-51
2022/02/13 19:47:17;;;;;;;;;;;;;;;38.26;12.25;97151.97;171822;28;1145;-52
2022/02/13 19:47:23;;;;;;;;;;;;;;;38.25;12.10;97144.94;171262;28;882;-52
2022/02/13 19:47:29;;;;;;;;;;;;;;;38.27;12.35;97145.53;171743;28;1161;-52
2022/02/13 19:47:34;;;;;;;;;;;;;;;38.29;12.24;97146.16;171822;28;892;-50
2022/02/13 19:47:40;;;;;;;;;;;;;;;38.30;12.24;97147.81;171747;28;1014;-51
2022/02/13 19:47:45;;;;;;;;;;;;;;;38.31;11.97;97144.06;171882;28;842;-52
2022/02/13 19:47:50;;;;;;;;;;;;;;;38.31;11.95;97152.16;172069;28;1098;-50
2022/02/13 19:47:55;;;;;;;;;;;;;;;38.31;12.43;97145.94;172477;28;1228;-51
2022/02/13 19:48:01;;;;;;;;;;;;;;;38.29;12.03;97145.31;172252;28;1009;-51
2022/02/13 19:48:06;;;;;;;;;;;;;;;38.26;12.21;97142.03;172262;28;1173;-52
2022/02/13 19:48:11;;;;;;;;;;;;;;;38.26;11.99;97147.41;171905;28;1093;-52
2022/02/13 19:48:17;;;;;;;;;;;;;;;38.27;12.36;97145.53;172448;28;1125;-51
2022/02/13 19:48:22;;;;;;;;;;;;;;;38.26;12.22;97147.41;172541;28;885;-49
2022/02/13 19:48:27;;;;;;;;;;;;;;;38.29;12.47;97148.03;172424;28;1011;-52
2022/02/13 19:48:32;;;;;;;;;;;;;;;38.29;12.12;97153.41;172583;28;913;-52
2022/02/13 19:48:38;;;;;;;;;;;;;;;38.29;12.13;97151.53;171974;28;1034;-51
2022/02/13 19:48:43;;;;;;;;;;;;;;;38.30;12.40;97146.97;172542;28;809;-51
2022/02/13 19:48:49;;;;;;;;;;;;;;;38.31;12.37;97151.31;172396;28;1014;-52
2022/02/13 19:48:55;;;;;;;;;;;;;;;38.32;12.21;97153.81;172515;28;881;-51
2022/02/13 19:49:00;;;;;;;;;;;;;;;38.32;12.03;97148.44;172291;28;1188;-50
2022/02/13 19:49:05;;;;;;;;;;;;;;;38.33;12.28;97155.47;172306;28;1048;-53
2022/02/13 19:49:10;;;;;;;;;;;;;;;38.32;12.27;97147.63;172400;28;1291;-51
2022/02/13 19:49:16;;;;;;;;;;;;;;;38.33;12.09;97147.41;172538;28;904;-51
2022/02/13 19:49:21;;;;;;;;;;;;;;;38.34;12.02;97153.59;172559;28;840;-51
2022/02/13 19:49:27;;;;;;;;;;;;;;;38.33;11.92;97146.56;172543;28;1090;-49
2022/02/13 19:49:33;;;;;;;;;;;;;;;38.32;11.98;97153.81;172332;28;925;-51
2022/02/13 19:49:38;;;;;;;;;;;;;;;38.31;12.17;97154.84;172386;28;1018;-51
2022/02/13 19:49:43;;;;;;;;;;;;;;;38.32;12.20;97156.53;172843;28;1356;-51
2022/02/13 19:49:48;;;;;;;;;;;;;;;38.32;11.93;97151.13;172520;28;1025;-51
2022/02/13 19:49:54;;;;;;;;;;;;;;;38.33;12.08;97154.66;172425;28;865;-51
2022/02/13 19:49:59;;;;;;;;;;;;;;;38.32;12.42;97151.13;172824;28;646;-50
2022/02/13 19:50:04;;;;;;;;;;;;;;;38.31;12.34;97149.44;172201;28;1313;-51
2022/02/13 19:50:09;;;;;;;;;;;;;;;38.30;12.19;97153.19;172421;28;1092;-50
2022/02/13 19:50:15;;;;;;;;;;;;;;;38.29;12.22;97154.22;172888;28;989;-52
2022/02/13 19:50:20;;;;;;;;;;;;;;;38.29;12.16;97145.31;172577;28;1438;-50
2022/02/13 19:50:26;;;;;;;;;;;;;;;38.30;12.43;97155.88;171715;28;4546;-52
2022/02/13 19:50:31;;;;;;;;;;;;;;;38.32;12.29;97148.44;172489;28;1245;-49
2022/02/13 19:50:36;;;;;;;;;;;;;;;38.30;12.42;97155.88;172388;28;1185;-50
2022/02/13 19:50:42;;;;;;;;;;;;;;;38.30;12.35;97147.81;173007;28;868;-51
2022/02/13 19:50:47;;;;;;;;;;;;;;;38.33;12.15;97155.47;173106;28;1275;-51
2022/02/13 19:50:52;;;;;;;;;;;;;;;38.32;12.14;97151.13;172544;28;849;-50
2022/02/13 19:50:59;;;;;;;;;;;;;;;38.33;12.18;97155.47;173177;28;868;-52
2022/02/13 19:51:04;;;;;;;;;;;;;;;38.32;12.18;97151.13;172458;28;944;-51
2022/02/13 19:51:10;;;;;;;;;;;;;;;38.33;12.25;97151.97;172296;28;1062;-49
2022/02/13 19:51:15;;;;;;;;;;;;;;;38.32;12.23;97151.13;172653;28;1217;-50
2022/02/13 19:51:20;;;;;;;;;;;;;;;38.33;12.21;97149.25;173251;28;897;-52
2022/02/13 19:51:25;;;;;;;;;;;;;;;38.31;12.34;97146.75;172744;28;963;-50
2022/02/13 19:51:31;;;;;;;;;;;;;;;38.31;11.96;97154.84;172836;28;1248;-51
2022/02/13 19:51:36;;;;;;;;;;;;;;;38.30;12.08;97149.66;173072;28;1192;-52
2022/02/13 19:51:41;;;;;;;;;;;;;;;38.29;12.25;97154.22;173080;28;863;-51
2022/02/13 19:51:46;;;;;;;;;;;;;;;38.28;12.08;97151.75;173153;28;1106;-51
2022/02/13 19:51:51;;;;;;;;;;;;;;;38.27;12.20;97159.00;172802;28;1287;-50
2022/02/13 19:51:57;;;;;;;;;;;;;;;38.28;12.43;97147.19;172485;28;798;-52
2022/02/13 19:52:04;;;;;;;;;;;;;;;38.29;12.25;97148.84;172787;28;1200;-51
2022/02/13 19:52:09;;;;;;;;;;;;;;;38.30;12.10;97149.66;172832;28;1029;-52
2022/02/13 19:52:14;;;;;;;;;;;;;;;38.30;12.24;97150.50;173159;28;1231;-52
2022/02/13 19:52:19;;;;;;;;;;;;;;;38.27;12.21;97145.53;173528;28;952;-51
2022/02/13 19:52:25;;;;;;;;;;;;;;;38.26;12.27;97151.97;173355;28;1203;-51
2022/02/13 19:52:30;;;;;;;;;;;;;;;38.26;12.48;97154.66;172906;28;1236;-51
2022/02/13 19:52:35;;;;;;;;;;;;;;;38.26;12.07;97154.66;172696;28;1146;-50
2022/02/13 19:52:41;;;;;;;;;;;;;;;38.27;12.42;97148.25;173216;28;849;-51
2022/02/13 19:52:46;;;;;;;;;;;;;;;38.25;12.44;97148.47;173172;28;1227;-50
2022/02/13 19:52:52;;;;;;;;;;;;;;;38.25;12.46;97153.03;173231;28;1327;-51
2022/02/13 19:52:57;;;;;;;;;;;;;;;38.25;12.31;97153.03;173715;28;975;-51
2022/02/13 19:53:03;;;;;;;;;;;;;;;38.23;12.27;97144.28;172824;28;1049;-52
2022/02/13 19:53:08;;;;;;;;;;;;;;;38.24;12.30;97152.19;172825;28;930;-50
2022/02/13 19:53:13;;;;;;;;;;;;;;;38.24;12.38;97154.06;173114;28;1330;-51
2022/02/13 19:53:18;;;;;;;;;;;;;;;38.24;12.11;97146.81;172868;28;931;-52
2022/02/13 19:53:23;;;;;;;;;;;;;;;38.24;12.27;97145.97;172459;28;1095;-51
2022/02/13 19:53:28;;;;;;;;;;;;;;;38.22;12.42;97151.53;172121;28;2173;-52
2022/02/13 19:53:34;;;;;;;;;;;;;;;38.24;12.41;97156.75;172495;28;1035;-52
2022/02/13 19:53:39;;;;;;;;;;;;;;;38.23;12.09;97155.91;172998;28;1339;-50
2022/02/13 19:53:44;;;;;;;;;;;;;;;38.23;12.37;97150.50;172725;28;943;-51
2022/02/13 19:53:49;;;;;;;;;;;;;;;38.21;12.33;97147.19;172504;28;1229;-52
2022/02/13 19:53:54;;;;;;;;;;;;;;;38.21;12.27;97151.75;171946;28;802;-50
2022/02/13 19:54:01;;;;;;;;;;;;;;;38.19;12.45;97151.13;172711;28;1138;-50
2022/02/13 19:54:07;;;;;;;;;;;;;;;38.20;12.17;97155.47;172469;28;896;-51
2022/02/13 19:54:12;;;;;;;;;;;;;;;38.21;12.46;97151.75;172415;28;1221;-50
2022/02/13 19:54:17;;;;;;;;;;;;;;;38.19;12.53;97148.44;172595;28;838;-51
2022/02/13 19:54:22;;;;;;;;;;;;;;;38.21;12.33;97149.06;172243;28;1063;-52
2022/02/13 19:54:27;;;;;;;;;;;;;;;38.19;12.33;97148.44;172094;28;4439;-50
2022/02/13 19:54:34;;;;;;;;;;;;;;;38.16;12.42;97149.72;172586;28;962;-50
2022/02/13 19:54:40;;;;;;;;;;;;;;;38.18;12.50;97153.00;172545;28;901;-50
2022/02/13 19:54:45;;;;;;;;;;;;;;;38.17;12.19;97145.16;172401;28;1204;-50
2022/02/13 19:54:50;;;;;;;;;;;;;;;38.16;12.26;97147.00;172333;28;1256;-50
2022/02/13 19:54:55;;;;;;;;;;;;;;;38.20;12.23;97144.72;172532;28;1130;-51
2022/02/13 19:55:00;;;;;;;;;;;;;;;38.18;12.51;97144.94;172307;28;946;-50
2022/02/13 19:55:06;;;;;;;;;;;;;;;38.16;12.61;97141.63;173704;28;810;-51
2022/02/13 19:55:11;;;;;;;;;;;;;;;38.16;12.29;97144.31;173678;28;1248;-51
2022/02/13 19:55:16;;;;;;;;;;;;;;;38.19;12.26;97149.28;173286;28;848;-51
2022/02/13 19:55:21;;;;;;;;;;;;;;;38.19;12.21;97148.44;173542;28;1139;-50
2022/02/13 19:55:32;;;;;;;;;;;;;;;38.18;12.38;97147.63;173890;28;976;-50
2022/02/13 19:55:37;;;;;;;;;;;;;;;38.16;12.09;97149.72;173710;28;1056;-51
2022/02/13 19:55:42;;;;;;;;;;;;;;;38.15;12.47;97150.72;173871;28;1015;-52
2022/02/13 19:55:47;;;;;;;;;;;;;;;38.20;11.99;97148.22;174396;28;1155;-52
2022/02/13 19:55:53;;;;;;;;;;;;;;;38.18;12.32;97150.31;174251;28;865;-51
2022/02/13 19:55:58;;;;;;;;;;;;;;;38.21;12.55;97149.88;173889;28;1231;-50
2022/02/13 19:56:04;;;;;;;;;;;;;;;38.23;12.21;97152.34;173488;28;1198;-51
2022/02/13 19:56:10;;;;;;;;;;;;;;;38.24;12.41;97145.97;173668;28;1225;-51
2022/02/13 19:56:16;;;;;;;;;;;;;;;38.24;12.27;97143.28;173877;28;837;-51
2022/02/13 19:56:21;;;;;;;;;;;;;;;38.24;12.42;97149.50;173807;28;1170;-53
2022/02/13 19:56:26;;;;;;;;;;;;;;;38.22;12.30;97142.63;173829;28;797;-51
2022/02/13 19:56:31;;;;;;;;;;;;;;;38.24;12.28;97145.97;173779;28;1346;-51
2022/02/13 19:56:36;;;;;;;;;;;;;;;38.24;12.53;97143.28;173836;28;861;-51
2022/02/13 19:56:44;;;;;;;;;;;;;;;38.23;12.28;97149.66;174134;28;962;-51
2022/02/13 19:56:49;;;;;;;;;;;;;;;38.19;12.26;97145.75;173789;28;1271;-51
2022/02/13 19:56:57;;;;;;;;;;;;;;;38.21;12.05;97147.19;173799;28;1165;-51
2022/02/13 19:57:02;;;;;;;;;;;;;;;38.19;12.32;97143.06;173264;28;923;-52
2022/02/13 19:57:07;;;;;;;;;;;;;;;38.19;12.14;97143.06;172317;28;1003;-52
2022/02/13 19:57:12;;;;;;;;;;;;;;;38.21;12.38;97149.06;172403;28;889;-52
2022/02/13 19:57:18;;;;;;;;;;;;;;;38.22;12.48;97143.44;172506;28;1153;-51
2022/02/13 19:57:23;;;;;;;;;;;;;;;38.23;12.32;97146.97;172548;28;671;-51
2022/02/13 19:57:28;;;;;;;;;;;;;;;38.25;12.15;97147.63;172407;28;1030;-51
2022/02/13 19:57:33;;;;;;;;;;;;;;;38.26;12.27;97151.97;172536;28;845;-51
2022/02/13 19:57:39;;;;;;;;;;;;;;;38.26;12.11;97143.91;172530;28;889;-51
2022/02/13 19:57:46;;;;;;;;;;;;;;;38.24;12.41;97143.28;172819;28;920;-51
2022/02/13 19:57:51;;;;;;;;;;;;;;;38.23;12.26;97150.50;172279;28;1085;-53
2022/02/13 19:57:56;;;;;;;;;;;;;;;38.23;12.30;97146.97;172506;28;1234;-51
2022/02/13 19:58:01;;;;;;;;;;;;;;;38.22;12.37;97143.44;172254;28;1070;-52
2022/02/13 19:58:07;;;;;;;;;;;;;;;38.20;12.43;97142.84;172296;28;1012;-51
2022/02/13 19:58:12;;;;;;;;;;;;;;;38.20;12.16;97150.09;171836;28;1295;-51
2022/02/13 19:58:17;;;;;;;;;;;;;;;38.21;12.19;97141.78;172563;28;968;-51
2022/02/13 19:58:22;;;;;;;;;;;;;;;38.21;12.04;97146.34;172534;28;963;-51
2022/02/13 19:58:28;;;;;;;;;;;;;;;38.17;12.17;97145.16;172184;28;4266;-52
2022/02/13 19:58:36;;;;;;;;;;;;;;;38.17;12.53;97142.44;172327;28;806;-49
2022/02/13 19:58:42;;;;;;;;;;;;;;;38.17;12.36;97145.16;172148;28;1055;-51
2022/02/13 19:58:47;;;;;;;;;;;;;;;38.17;12.29;97142.44;173165;28;1183;-53
2022/02/13 19:58:52;;;;;;;;;;;;;;;38.15;12.38;97147.19;172238;28;861;-51
2022/02/13 19:58:57;;;;;;;;;;;;;;;38.16;12.48;97140.81;172620;28;941;-52
2022/02/13 19:59:03;;;;;;;;;;;;;;;38.18;12.31;97146.78;172295;28;1054;-51
2022/02/13 19:59:08;;;;;;;;;;;;;;;38.18;12.08;97141.41;172489;28;1221;-52
2022/02/13 19:59:13;;;;;;;;;;;;;;;38.16;12.05;97138.94;172423;28;1022;-51
2022/02/13 19:59:20;;;;;;;;;;;;;;;38.17;12.09;97137.06;172498;28;862;-50
2022/02/13 19:59:27;;;;;;;;;;;;;;;38.19;12.33;97134.97;172368;28;951;-49
2022/02/13 19:59:33;;;;;;;;;;;;;;;38.17;12.42;97142.44;172531;28;854;-51
2022/02/13 19:59:40;;;;;;;;;;;;;;;38.16;12.60;97140.81;172554;28;1212;-52
2022/02/13 19:59:45;;;;;;;;;;;;;;;38.16;12.17;97138.94;172129;28;890;-51
2022/02/13 19:59:51;;;;;;;;;;;;;;;38.17;12.12;97137.06;172456;28;1113;-51
2022/02/13 19:59:56;;;;;;;;;;;;;;;38.17;12.39;97139.75;172608;28;813;-50
2022/02/13 20:00:01;;;;;;;;;;;;;;;38.16;12.40;97141.63;172422;28;1114;-49
2022/02/13 20:00:08;;;;;;;;;;;;;;;38.15;12.18;97136.44;172438;28;789;-52
2022/02/13 20:00:15;;;;;;;;;;;;;;;38.16;12.54;97140.81;172429;28;1011;-51
2022/02/13 20:00:22;;;;;;;;;;;;;;;38.16;12.26;97136.25;172618;28;700;-52
2022/02/13 20:00:27;;;;;;;;;;;;;;;38.16;12.40;97138.09;172647;28;1089;-51
2022/02/13 20:00:33;;;;;;;;;;;;;;;38.17;12.11;97140.59;172463;28;1016;-52
2022/02/13 20:00:39;;;;;;;;;;;;;;;38.19;12.30;97140.38;172469;28;1201;-50
2022/02/13 20:00:45;;;;;;;;;;;;;;;38.16;12.16;97147.00;172520;28;912;-50
2022/02/13 20:00:50;;;;;;;;;;;;;;;38.19;12.16;97137.66;172485;28;1237;-52
2022/02/13 20:00:56;;;;;;;;;;;;;;;38.19;12.19;97137.66;172588;28;931;-50
2022/02/13 20:01:01;;;;;;;;;;;;;;;38.18;12.32;97136.03;172309;28;1082;-51
2022/02/13 20:01:06;;;;;;;;;;;;;;;38.18;12.20;97136.84;172308;28;873;-51
2022/02/13 20:01:12;;;;;;;;;;;;;;;38.19;12.21;97137.66;172212;28;1259;-52
2022/02/13 20:01:17;;;;;;;;;;;;;;;38.16;12.58;97133.53;172583;28;774;-51
2022/02/13 20:01:22;;;;;;;;;;;;;;;38.15;12.32;97136.44;172423;28;786;-51
2022/02/13 20:01:27;;;;;;;;;;;;;;;38.15;12.42;97131.88;172457;28;1165;-52
2022/02/13 20:01:33;;;;;;;;;;;;;;;38.17;12.49;97134.38;172267;28;870;-51
2022/02/13 20:01:38;;;;;;;;;;;;;;;38.18;12.55;97134.16;172457;28;1178;-50
2022/02/13 20:01:43;;;;;;;;;;;;;;;38.15;12.49;97131.88;172465;28;810;-52
2022/02/13 20:01:48;;;;;;;;;;;;;;;38.15;12.55;97141.81;172481;28;1213;-51
2022/02/13 20:01:55;;;;;;;;;;;;;;;38.16;12.49;97136.25;172514;28;845;-50
2022/02/13 20:02:00;;;;;;;;;;;;;;;38.17;12.49;97128.97;172332;28;1129;-50
2022/02/13 20:02:06;;;;;;;;;;;;;;;38.18;12.48;97139.53;171771;28;865;-50
2022/02/13 20:02:11;;;;;;;;;;;;;;;38.17;12.37;97134.38;172147;28;932;-51
2022/02/13 20:02:16;;;;;;;;;;;;;;;38.19;12.44;97137.66;172573;28;794;-52
2022/02/13 20:02:22;;;;;;;;;;;;;;;38.18;12.42;97138.72;172588;28;841;-51
2022/02/13 20:02:29;;;;;;;;;;;;;;;38.17;12.33;97135.19;172209;28;4323;-51
2022/02/13 20:02:35;;;;;;;;;;;;;;;38.17;12.36;97137.06;172680;28;963;-51
2022/02/13 20:02:40;;;;;;;;;;;;;;;38.17;12.29;97137.88;173243;28;642;-51
2022/02/13 20:02:45;;;;;;;;;;;;;;;38.20;12.49;97136.63;173090;28;873;-51
2022/02/13 20:02:51;;;;;;;;;;;;;;;38.20;12.19;97131.25;173032;28;1047;-51
2022/02/13 20:02:56;;;;;;;;;;;;;;;38.21;12.49;97135.59;172830;28;1206;-51
2022/02/13 20:03:01;;;;;;;;;;;;;;;38.20;12.22;97134.75;172967;28;970;-49
2022/02/13 20:03:07;;;;;;;;;;;;;;;38.20;12.38;97134.75;173113;28;861;-52
2022/02/13 20:03:16;;;;;;;;;;;;;;;38.18;12.36;97134.16;173070;28;1018;-51
2022/02/13 20:03:22;;;;;;;;;;;;;;;38.18;12.43;97136.03;173165;28;987;-51
2022/02/13 20:03:27;;;;;;;;;;;;;;;38.20;12.36;97131.25;173281;28;881;-51
2022/02/13 20:03:32;;;;;;;;;;;;;;;38.18;12.48;97136.03;172848;28;782;-51
2022/02/13 20:03:37;;;;;;;;;;;;;;;38.17;12.34;97132.50;173049;28;1545;-49
2022/02/13 20:03:43;;;;;;;;;;;;;;;38.17;12.19;97132.50;173241;28;870;-52
2022/02/13 20:03:48;;;;;;;;;;;;;;;38.16;12.39;97128.16;172930;28;1331;-51
2022/02/13 20:03:53;;;;;;;;;;;;;;;38.17;12.32;97132.50;172587;28;802;-52
2022/02/13 20:03:59;;;;;;;;;;;;;;;38.19;12.47;97137.66;172906;28;1142;-51
2022/02/13 20:04:04;;;;;;;;;;;;;;;38.20;12.30;97136.63;172901;28;876;-52
2022/02/13 20:04:09;;;;;;;;;;;;;;;38.18;12.25;97134.16;173053;28;1224;-51
2022/02/13 20:04:15;;;;;;;;;;;;;;;38.20;12.23;97133.94;173220;28;948;-52
2022/02/13 20:04:20;;;;;;;;;;;;;;;38.22;12.34;97137.22;173038;28;1009;-55
2022/02/13 20:04:25;;;;;;;;;;;;;;;38.23;12.24;97131.66;173251;28;825;-52
2022/02/13 20:04:31;;;;;;;;;;;;;;;38.29;12.05;97138.06;172894;28;1427;-52
2022/02/13 20:04:36;;;;;;;;;;;;;;;38.31;12.07;97135.97;172971;28;1946;-49
2022/02/13 20:04:41;;;;;;;;;;;;;;;38.35;12.48;97139.91;173287;28;825;-52
2022/02/13 20:04:47;;;;;;;;;;;;;;;38.37;12.24;97140.53;173192;28;1164;-53
2022/02/13 20:04:52;;;;;;;;;;;;;;;38.36;12.31;97136.19;173242;28;1017;-55
2022/02/13 20:04:57;;;;;;;;;;;;;;;38.37;12.34;97135.13;173101;28;1193;-51
2022/02/13 20:05:03;;;;;;;;;;;;;;;38.39;12.02;97133.03;173026;28;986;-52
2022/02/13 20:05:08;;;;;;;;;;;;;;;38.40;12.34;97140.13;172904;28;1118;-52
2022/02/13 20:05:13;;;;;;;;;;;;;;;38.40;12.22;97137.41;173145;28;873;-52
2022/02/13 20:05:18;;;;;;;;;;;;;;;38.40;11.89;97139.28;173179;28;1580;-51
2022/02/13 20:05:24;;;;;;;;;;;;;;;38.40;12.07;97139.28;173232;28;967;-51
2022/02/13 20:05:29;;;;;;;;;;;;;;;38.40;12.14;97134.72;172998;28;1022;-51
2022/02/13 20:05:34;;;;;;;;;;;;;;;38.42;12.06;97135.34;173063;28;924;-51
2022/02/13 20:05:40;;;;;;;;;;;;;;;38.44;12.11;97135.13;173212;28;794;-52
2022/02/13 20:05:45;;;;;;;;;;;;;;;38.43;12.17;97130.75;173208;28;1137;-51
2022/02/13 20:05:50;;;;;;;;;;;;;;;38.46;12.24;97133.03;173165;28;1271;-52
2022/02/13 20:05:55;;;;;;;;;;;;;;;38.47;12.27;97135.53;172876;28;1011;-50
2022/02/13 20:06:01;;;;;;;;;;;;;;;38.47;12.13;97135.53;172907;28;919;-51
2022/02/13 20:06:06;;;;;;;;;;;;;;;38.48;12.22;97133.66;173066;28;1018;-51
2022/02/13 20:06:11;;;;;;;;;;;;;;;38.48;12.11;97136.34;173038;28;1209;-51
2022/02/13 20:06:16;;;;;;;;;;;;;;;38.49;12.28;97130.75;173178;28;810;-51
2022/02/13 20:06:21;;;;;;;;;;;;;;;38.51;12.15;97142.13;173158;28;1155;-52
2022/02/13 20:06:27;;;;;;;;;;;;;;;38.54;12.07;97133.59;173175;28;1202;-51
2022/02/13 20:06:32;;;;;;;;;;;;;;;38.55;11.80;97131.72;172400;28;16830;-51
2022/02/13 20:06:38;;;;;;;;;;;;;;;38.57;12.12;97135.06;173767;28;893;-51
2022/02/13 20:06:43;;;;;;;;;;;;;;;38.57;12.06;97132.38;173919;28;1216;-51
2022/02/13 20:06:49;;;;;;;;;;;;;;;38.57;12.07;97143.16;173437;28;1038;-51
2022/02/13 20:06:54;;;;;;;;;;;;;;;38.60;11.88;97133.78;173195;28;1145;-50
2022/02/13 20:06:59;;;;;;;;;;;;;;;38.61;11.96;97132.75;173005;28;978;-49
2022/02/13 20:07:05;;;;;;;;;;;;;;;38.63;11.92;97131.50;173010;28;935;-52
2022/02/13 20:07:12;;;;;;;;;;;;;;;38.63;12.12;97130.66;173078;28;1200;-51
2022/02/13 20:07:17;;;;;;;;;;;;;;;38.62;12.05;97131.69;173097;28;1093;-51
2022/02/13 20:07:23;;;;;;;;;;;;;;;38.60;12.07;97131.09;173246;28;818;-50
2022/02/13 20:07:28;;;;;;;;;;;;;;;38.60;12.05;97129.22;172997;28;1208;-52
2022/02/13 20:07:33;;;;;;;;;;;;;;;38.60;12.20;97139.19;173652;28;908;-51
2022/02/13 20:07:38;;;;;;;;;;;;;;;38.62;12.15;97134.41;173486;28;940;-51
2022/02/13 20:07:43;;;;;;;;;;;;;;;38.63;11.89;97131.50;173148;28;1215;-53
2022/02/13 20:07:50;;;;;;;;;;;;;;;38.66;12.00;97132.94;172745;28;1153;-51
2022/02/13 20:07:56;;;;;;;;;;;;;;;38.66;12.15;97125.69;173054;28;935;-51
2022/02/13 20:08:01;;;;;;;;;;;;;;;38.67;11.91;97124.63;173069;28;982;-52
2022/02/13 20:08:08;;;;;;;;;;;;;;;38.68;12.11;97128.16;173077;28;1113;-52
2022/02/13 20:08:14;;;;;;;;;;;;;;;38.72;11.94;97132.13;172772;28;889;-52
2022/02/13 20:08:21;;;;;;;;;;;;;;;38.69;11.83;97130.66;173164;28;1169;-52
2022/02/13 20:08:27;;;;;;;;;;;;;;;38.70;11.92;97126.09;173125;28;817;-50
2022/02/13 20:08:33;;;;;;;;;;;;;;;38.70;11.91;97132.31;173212;28;987;-51
2022/02/13 20:08:38;;;;;;;;;;;;;;;38.72;11.92;97129.41;173900;28;793;-51
2022/02/13 20:08:43;;;;;;;;;;;;;;;38.74;11.86;97130.03;173176;28;1192;-53
2022/02/13 20:08:48;;;;;;;;;;;;;;;38.76;11.79;97125.22;173109;28;1026;-51
2022/02/13 20:08:53;;;;;;;;;;;;;;;38.75;11.92;97131.66;173179;28;1174;-51
2022/02/13 20:08:59;;;;;;;;;;;;;;;38.78;11.77;97128.53;173265;28;877;-50
2022/02/13 20:09:05;;;;;;;;;;;;;;;38.77;11.94;97129.56;172883;28;1196;-51
2022/02/13 20:09:10;;;;;;;;;;;;;;;38.79;11.99;97132.91;172768;28;1176;-52
2022/02/13 20:09:15;;;;;;;;;;;;;;;38.78;11.91;97128.53;172737;28;838;-52
2022/02/13 20:09:20;;;;;;;;;;;;;;;38.79;11.86;97130.22;173219;28;1003;-51
2022/02/13 20:09:26;;;;;;;;;;;;;;;38.76;11.99;97134.13;173201;28;1126;-51
2022/02/13 20:09:31;;;;;;;;;;;;;;;38.77;11.85;97130.41;174395;28;1022;-51
2022/02/13 20:09:37;;;;;;;;;;;;;;;38.77;11.88;97126.88;174535;28;1529;-51
2022/02/13 20:09:43;;;;;;;;;;;;;;;38.75;11.88;97127.09;174476;28;1077;-51
2022/02/13 20:09:48;;;;;;;;;;;;;;;38.76;11.90;97128.75;174478;28;1216;-51
2022/02/13 20:09:53;;;;;;;;;;;;;;;38.77;11.86;97135.78;174479;28;978;-51
2022/02/13 20:09:59;;;;;;;;;;;;;;;38.78;11.76;97126.66;174489;28;956;-51
2022/02/13 20:10:05;;;;;;;;;;;;;;;38.78;11.74;97128.53;174328;28;958;-51
2022/02/13 20:10:10;;;;;;;;;;;;;;;38.78;11.81;97131.22;174027;28;1159;-51
2022/02/13 20:10:16;;;;;;;;;;;;;;;38.77;11.92;97127.69;174101;28;1169;-51
2022/02/13 20:10:22;;;;;;;;;;;;;;;38.76;11.88;97127.94;174407;28;821;-51
2022/02/13 20:10:29;;;;;;;;;;;;;;;38.76;12.12;97128.75;173964;28;4379;-52
2022/02/13 20:10:34;;;;;;;;;;;;;;;38.77;11.77;97135.78;174324;28;860;-51
2022/02/13 20:10:39;;;;;;;;;;;;;;;38.75;11.97;97131.66;174439;28;1021;-52
2022/02/13 20:10:45;;;;;;;;;;;;;;;38.73;12.03;97128.38;174611;28;939;-50
2022/02/13 20:10:50;;;;;;;;;;;;;;;38.69;11.89;97127.97;174353;28;1092;-50
2022/02/13 20:10:55;;;;;;;;;;;;;;;38.70;11.94;97136.88;174482;28;885;-51
2022/02/13 20:11:02;;;;;;;;;;;;;;;38.71;11.63;97133.13;174282;28;937;-50
2022/02/13 20:11:07;;;;;;;;;;;;;;;38.73;11.97;97129.19;173842;28;826;-50
2022/02/13 20:11:13;;;;;;;;;;;;;;;38.73;11.75;97128.38;174168;28;954;-52
2022/02/13 20:11:18;;;;;;;;;;;;;;;38.71;11.78;97125.03;174566;28;809;-52
2022/02/13 20:11:24;;;;;;;;;;;;;;;38.71;11.89;97130.44;174555;28;857;-51
2022/02/13 20:11:29;;;;;;;;;;;;;;;38.71;12.05;97122.34;173613;28;1022;-51
2022/02/13 20:11:34;;;;;;;;;;;;;;;38.71;11.82;97138.53;172535;28;826;-51
2022/02/13 20:11:39;;;;;;;;;;;;;;;38.72;11.78;97129.41;173084;28;1193;-52
2022/02/13 20:11:44;;;;;;;;;;;;;;;38.71;11.99;97125.03;173155;28;1004;-50
2022/02/13 20:11:50;;;;;;;;;;;;;;;38.70;11.97;97128.78;173135;28;1144;-52
2022/02/13 20:11:55;;;;;;;;;;;;;;;38.72;12.10;97134.81;173321;28;914;-51
2022/02/13 20:12:00;;;;;;;;;;;;;;;38.72;11.93;97129.41;172872;28;978;-51
2022/02/13 20:12:07;;;;;;;;;;;;;;;38.72;11.94;97132.94;173130;28;845;-52
2022/02/13 20:12:12;;;;;;;;;;;;;;;38.69;11.87;97125.25;172707;28;1015;-51
2022/02/13 20:12:17;;;;;;;;;;;;;;;38.69;11.89;97125.25;173199;28;869;-50
2022/02/13 20:12:22;;;;;;;;;;;;;;;38.72;12.05;97132.13;173179;28;1193;-52
2022/02/13 20:12:28;;;;;;;;;;;;;;;38.71;11.75;97130.44;173117;28;1011;-51
2022/02/13 20:12:33;;;;;;;;;;;;;;;38.71;11.92;97125.03;173123;28;877;-52
2022/02/13 20:12:39;;;;;;;;;;;;;;;38.71;11.76;97125.91;173170;28;1208;-51
2022/02/13 20:12:44;;;;;;;;;;;;;;;38.73;11.96;97125.69;173241;28;882;-52
2022/02/13 21:28:34;;;;;;;;;;;;;;;40.38;10.66;97082.88;174980;28;1429;-50
2022/02/13 21:28:39;;;;;;;;;;;;;;;40.37;10.59;97070.41;173284;28;1219;-51
2022/02/13 21:28:44;;;;;;;;;;;;;;;40.36;10.46;97074.16;173446;28;963;-52
2022/02/13 21:28:49;;;;;;;;;;;;;;;40.37;10.87;97078.50;172479;28;2192;-50
2022/02/13 21:28:55;;;;;;;;;;;;;;;40.37;10.50;97087.47;173341;28;1173;-52
2022/02/13 21:29:00;;;;;;;;;;;;;;;40.36;10.51;97079.56;173416;28;1325;-49
2022/02/13 21:29:05;;;;;;;;;;;;;;;40.39;10.79;97076.41;173547;28;885;-50
2022/02/13 21:29:11;;;;;;;;;;;;;;;40.42;10.67;97074.06;172180;28;2053;-51
2022/02/13 21:29:16;;;;;;;;;;;;;;;40.45;10.82;97073.66;173840;28;900;-51
2022/02/13 21:29:23;;;;;;;;;;;;;;;40.48;10.49;97076.94;173155;28;1188;-51
2022/02/13 21:29:28;;;;;;;;;;;;;;;40.53;10.36;97075.22;172285;28;2101;-50
2022/02/13 21:29:33;;;;;;;;;;;;;;;40.57;10.63;97083.69;173385;28;1199;-49
2022/02/13 21:29:39;;;;;;;;;;;;;;;40.59;10.35;97079.69;173170;28;1029;-51
2022/02/13 21:29:44;;;;;;;;;;;;;;;40.59;10.63;97079.69;173518;28;1188;-52
2022/02/13 21:29:49;;;;;;;;;;;;;;;40.61;10.68;97082.19;172223;28;4069;-53
2022/02/13 21:29:54;;;;;;;;;;;;;;;40.61;10.24;97080.31;173544;28;1354;-51
2022/02/13 21:30:00;;;;;;;;;;;;;;;40.61;10.48;97077.59;173323;28;1091;-49